createdAt,value
2022-12-19T00:01:21.566Z,-5.69
2022-12-19T00:04:23.831Z,-5.68
2022-12-19T00:07:27.113Z,-5.67
2022-12-19T00:10:29.167Z,-5.68
2022-12-19T00:13:35.284Z,-5.67
2022-12-19T00:16:46.319Z,-5.62
2022-12-19T00:19:51.549Z,-5.59
2022-12-19T00:22:54.882Z,-5.57
2022-12-19T00:26:08.710Z,-5.54
2022-12-19T00:29:14.234Z,-5.59
2022-12-19T00:32:16.612Z,-5.53
2022-12-19T00:35:18.936Z,-5.46
2022-12-19T00:38:22.227Z,-5.44
2022-12-19T00:41:28.685Z,-5.48
2022-12-19T00:44:30.693Z,-5.43
2022-12-19T00:47:35.013Z,-5.47
2022-12-19T00:50:36.996Z,-5.58
2022-12-19T00:53:40.361Z,-5.52
2022-12-19T00:56:42.398Z,-5.49
2022-12-19T00:59:46.795Z,-5.56
2022-12-19T01:02:48.978Z,-5.71
2022-12-19T01:05:51.587Z,-5.63
2022-12-19T01:08:54.978Z,-5.55
2022-12-19T01:11:56.942Z,-5.59
2022-12-19T01:15:03.804Z,-5.47
2022-12-19T01:18:09.120Z,-5.52
2022-12-19T01:21:11.303Z,-5.49
2022-12-19T01:24:18.961Z,-5.46
2022-12-19T01:27:21.182Z,-5.38
2022-12-19T01:30:23.126Z,-5.36
2022-12-19T01:33:26.517Z,-5.43
2022-12-19T01:36:29.098Z,-5.43
2022-12-19T01:39:32.535Z,-5.43
2022-12-19T01:42:37.381Z,-5.37
2022-12-19T01:45:45.472Z,-5.42
2022-12-19T01:48:48.285Z,-5.52
2022-12-19T01:51:56.745Z,-5.52
2022-12-19T01:55:01.210Z,-5.48
2022-12-19T01:58:03.637Z,-5.52
2022-12-19T02:01:05.989Z,-5.51
2022-12-19T02:04:09.254Z,-5.57
2022-12-19T02:07:16.188Z,-5.63
2022-12-19T02:10:21.263Z,-5.62
2022-12-19T02:13:24.597Z,-5.60
2022-12-19T02:16:38.778Z,-5.61
2022-12-19T02:20:05.580Z,-5.58
2022-12-19T02:23:30.685Z,-5.65
2022-12-19T02:27:00.306Z,-5.65
2022-12-19T02:30:08.596Z,-5.62
2022-12-19T02:33:17.305Z,-5.68
2022-12-19T02:36:24.859Z,-5.59
2022-12-19T02:39:34.117Z,-5.63
2022-12-19T02:42:39.289Z,-5.59
2022-12-19T02:45:42.346Z,-5.56
2022-12-19T02:48:49.149Z,-5.51
2022-12-19T02:51:51.384Z,-5.48
2022-12-19T02:54:56.404Z,-5.50
2022-12-19T02:58:31.623Z,-5.48
2022-12-19T03:01:42.979Z,-5.51
2022-12-19T03:04:53.772Z,-5.51
2022-12-19T03:08:02.163Z,-5.41
2022-12-19T03:11:07.775Z,-5.35
2022-12-19T03:14:17.579Z,-5.38
2022-12-19T03:17:19.811Z,-5.36
2022-12-19T03:20:28.997Z,-5.35
2022-12-19T03:23:33.821Z,-5.33
2022-12-19T03:26:41.228Z,-5.35
2022-12-19T03:29:47.345Z,-5.44
2022-12-19T03:32:49.978Z,-5.41
2022-12-19T03:35:56.587Z,-5.33
2022-12-19T03:39:01.606Z,-5.35
2022-12-19T03:42:06.963Z,-5.33
2022-12-19T03:45:11.772Z,-5.37
2022-12-19T03:48:25.697Z,-5.40
2022-12-19T03:51:35.616Z,-5.33
2022-12-19T03:54:41.802Z,-5.25
2022-12-19T03:57:51.436Z,-5.23
2022-12-19T04:00:54.771Z,-5.20
2022-12-19T04:03:58.273Z,-5.17
2022-12-19T04:07:05.395Z,-5.26
2022-12-19T04:10:12.071Z,-5.21
2022-12-19T04:13:18.917Z,-5.19
2022-12-19T04:16:29.912Z,-5.33
2022-12-19T04:19:42.431Z,-5.34
2022-12-19T04:22:53.178Z,-5.33
2022-12-19T04:26:04.365Z,-5.31
2022-12-19T04:29:10.364Z,-5.12
2022-12-19T04:32:13.048Z,-5.10
2022-12-19T04:35:14.939Z,-5.08
2022-12-19T04:38:19.639Z,-5.08
2022-12-19T04:41:24.318Z,-5.10
2022-12-19T04:44:26.331Z,-5.04
2022-12-19T04:47:28.322Z,-5.08
2022-12-19T04:50:32.656Z,-5.04
2022-12-19T04:53:36.612Z,-5.00
2022-12-19T04:56:40.434Z,-5.12
2022-12-19T04:59:42.428Z,-5.28
2022-12-19T05:02:44.592Z,-5.28
2022-12-19T05:05:46.707Z,-5.28
2022-12-19T05:08:50.085Z,-5.47
2022-12-19T05:11:52.030Z,-5.37
2022-12-19T05:14:53.925Z,-5.44
2022-12-19T05:17:55.823Z,-5.37
2022-12-19T05:20:57.709Z,-5.29
2022-12-19T05:24:01.111Z,-5.21
2022-12-19T05:27:02.966Z,-5.18
2022-12-19T05:30:06.655Z,-5.12
2022-12-19T05:33:08.663Z,-5.07
2022-12-19T05:36:13.932Z,-5.06
2022-12-19T05:39:17.379Z,-4.98
2022-12-19T05:42:19.386Z,-4.97
2022-12-19T05:45:21.556Z,-5.01
2022-12-19T05:48:23.461Z,-4.93
2022-12-19T05:51:25.542Z,-4.92
2022-12-19T05:54:28.772Z,-4.88
2022-12-19T05:57:31.249Z,-4.93
2022-12-19T06:00:33.198Z,-4.94
2022-12-19T06:03:35.773Z,-4.90
2022-12-19T06:06:37.771Z,-4.89
2022-12-19T06:09:44.036Z,-4.97
2022-12-19T06:12:46.017Z,-4.92
2022-12-19T06:15:47.972Z,-4.83
2022-12-19T06:18:51.555Z,-4.85
2022-12-19T06:21:53.583Z,-4.89
2022-12-19T06:24:57.965Z,-4.84
2022-12-19T06:27:59.851Z,-4.81
2022-12-19T06:31:07.929Z,-4.78
2022-12-19T06:34:10.441Z,-4.73
2022-12-19T06:37:12.581Z,-4.74
2022-12-19T06:40:16.127Z,-4.68
2022-12-19T06:43:18.017Z,-4.72
2022-12-19T06:46:20.002Z,-4.71
2022-12-19T06:49:21.995Z,-4.75
2022-12-19T06:52:23.859Z,-4.68
2022-12-19T06:55:27.152Z,-4.69
2022-12-19T06:58:29.130Z,-4.78
2022-12-19T07:01:43.762Z,-4.75
2022-12-19T07:04:48.592Z,-4.71
2022-12-19T07:07:50.666Z,-4.62
2022-12-19T07:10:53.968Z,-4.64
2022-12-19T07:13:55.856Z,-4.55
2022-12-19T07:17:00.428Z,-4.62
2022-12-19T07:20:03.402Z,-4.52
2022-12-19T07:23:06.703Z,-4.52
2022-12-19T07:26:09.975Z,-4.55
2022-12-19T07:29:12.435Z,-4.58
2022-12-19T07:32:14.547Z,-4.48
2022-12-19T07:35:16.648Z,-4.45
2022-12-19T07:38:18.577Z,-4.48
2022-12-19T07:41:21.923Z,-4.56
2022-12-19T07:44:23.890Z,-4.67
2022-12-19T07:47:25.765Z,-4.60
2022-12-19T07:50:27.838Z,-4.55
2022-12-19T07:53:32.536Z,-4.50
2022-12-19T07:56:35.792Z,-4.50
2022-12-19T07:59:39.431Z,-4.44
2022-12-19T08:02:41.668Z,-4.54
2022-12-19T08:05:43.744Z,-4.56
2022-12-19T08:08:45.951Z,-4.53
2022-12-19T08:11:49.217Z,-4.42
2022-12-19T08:14:56.834Z,-4.47
2022-12-19T08:17:59.305Z,-4.40
2022-12-19T08:21:01.371Z,-4.60
2022-12-19T08:24:06.099Z,-4.44
2022-12-19T08:27:09.503Z,-4.45
2022-12-19T08:30:15.261Z,-4.27
2022-12-19T08:33:17.115Z,-4.32
2022-12-19T08:36:19.005Z,-4.28
2022-12-19T08:39:20.917Z,-4.23
2022-12-19T08:42:24.186Z,-4.20
2022-12-19T08:45:26.115Z,-4.13
2022-12-19T08:48:28.100Z,-4.06
2022-12-19T08:51:30.369Z,-4.20
2022-12-19T08:54:33.153Z,-4.02
2022-12-19T08:57:36.490Z,-3.99
2022-12-19T09:00:41.358Z,-3.88
2022-12-19T09:05:08.521Z,-3.91
2022-12-19T09:07:05.044Z,-3.68
2022-12-19T09:10:08.578Z,-3.66
2022-12-19T09:13:11.868Z,-3.74
2022-12-19T09:16:15.579Z,-3.65
2022-12-19T09:19:17.804Z,-3.51
2022-12-19T09:22:19.655Z,-3.49
2022-12-19T09:25:21.546Z,-3.48
2022-12-19T09:28:27.717Z,-3.48
2022-12-19T09:31:30.295Z,-3.47
2022-12-19T09:34:38.033Z,-3.51
2022-12-19T09:37:40.768Z,-3.57
2022-12-19T09:40:57.961Z,-3.54
2022-12-19T09:44:11.235Z,-3.44
2022-12-19T09:47:17.272Z,-3.39
2022-12-19T09:50:29.150Z,-3.22
2022-12-19T09:53:38.015Z,-3.20
2022-12-19T09:56:45.514Z,-3.17
2022-12-19T09:59:54.305Z,-3.22
2022-12-19T10:03:00.262Z,-3.15
2022-12-19T10:07:15.965Z,-3.08
2022-12-19T10:12:16.931Z,-3.04
2022-12-19T10:13:17.632Z,-3.14
2022-12-19T10:16:30.716Z,-3.13
2022-12-19T10:19:44.433Z,-3.10
2022-12-19T10:23:01.650Z,-3.01
2022-12-19T10:26:09.990Z,-2.98
2022-12-19T10:29:38.130Z,-2.86
2022-12-19T10:32:55.784Z,-2.92
2022-12-19T10:36:02.271Z,-2.90
2022-12-19T10:39:13.294Z,-2.87
2022-12-19T10:42:23.963Z,-2.90
2022-12-19T10:45:33.235Z,-2.88
2022-12-19T10:48:36.277Z,-2.82
2022-12-19T10:51:38.089Z,-2.79
2022-12-19T10:54:41.628Z,-2.76
2022-12-19T10:57:43.569Z,-2.75
2022-12-19T11:01:13.516Z,-2.73
2022-12-19T11:04:31.339Z,-2.74
2022-12-19T11:07:33.985Z,-2.64
2022-12-19T11:13:09.933Z,-2.62
2022-12-19T11:18:57.240Z,-2.73
2022-12-19T11:27:30.667Z,-2.76
2022-12-19T11:29:30.741Z,-2.75
2022-12-19T11:30:07.048Z,-2.70
2022-12-19T11:30:39.549Z,-2.66
2022-12-19T11:35:01.758Z,-2.65
2022-12-19T11:38:06.785Z,-2.57
2022-12-19T11:41:19.357Z,-2.48
2022-12-19T11:44:28.070Z,-2.47
2022-12-19T11:47:35.920Z,-2.46
2022-12-19T11:50:43.509Z,-2.45
2022-12-19T11:53:56.451Z,-2.41
2022-12-19T11:56:59.327Z,-2.41
2022-12-19T12:00:05.003Z,-2.41
2022-12-19T12:03:41.068Z,-2.56
2022-12-19T12:06:54.056Z,-2.71
2022-12-19T12:16:32.090Z,-2.68
2022-12-19T12:22:26.387Z,-2.47
2022-12-19T12:31:01.919Z,-2.49
2022-12-19T12:31:15.526Z,-2.51
2022-12-19T12:31:26.999Z,-2.53
2022-12-19T12:31:43.765Z,-2.63
2022-12-19T12:37:15.790Z,-2.78
2022-12-19T12:38:47.970Z,-2.72
2022-12-19T12:42:02.873Z,-2.61
2022-12-19T12:45:18.769Z,-2.63
2022-12-19T12:48:26.496Z,-2.58
2022-12-19T12:51:33.555Z,-2.57
2022-12-19T12:54:37.959Z,-2.46
2022-12-19T12:57:40.281Z,-2.44
2022-12-19T13:01:12.382Z,-2.41
2022-12-19T13:04:21.801Z,-2.42
2022-12-19T13:07:41.863Z,-2.35
2022-12-19T13:10:55.339Z,-2.32
2022-12-19T13:13:57.261Z,-2.41
2022-12-19T13:17:05.545Z,-2.35
2022-12-19T13:20:40.426Z,-2.50
2022-12-19T13:23:48.434Z,-2.30
2022-12-19T13:26:51.514Z,-2.40
2022-12-19T13:30:01.892Z,-2.28
2022-12-19T13:33:09.618Z,-2.35
2022-12-19T13:40:00.881Z,-2.37
2022-12-19T13:40:32.572Z,-2.42
2022-12-19T13:43:38.981Z,-2.43
2022-12-19T13:46:42.849Z,-2.45
2022-12-19T13:49:46.347Z,-2.40
2022-12-19T13:52:49.089Z,-2.42
2022-12-19T13:55:54.096Z,-2.47
2022-12-19T13:58:59.546Z,-2.18
2022-12-19T14:02:08.258Z,-2.43
2022-12-19T14:05:31.945Z,-2.44
2022-12-19T14:08:45.896Z,-2.44
2022-12-19T14:13:39.659Z,-2.42
2022-12-19T14:15:28.137Z,-2.45
2022-12-19T14:18:44.391Z,-2.40
2022-12-19T14:22:06.637Z,-2.40
2022-12-19T14:27:51.901Z,-2.27
2022-12-19T14:28:38.672Z,-2.35
2022-12-19T14:31:58.405Z,-2.31
2022-12-19T14:36:07.760Z,-2.31
2022-12-19T14:39:22.941Z,-2.39
2022-12-19T14:42:03.139Z,-2.36
2022-12-19T14:52:51.018Z,-2.44
2022-12-19T14:53:34.435Z,-2.38
2022-12-19T14:54:21.708Z,-2.53
2022-12-19T14:59:41.269Z,-2.41
2022-12-19T15:02:45.766Z,-2.43
2022-12-19T15:05:48.153Z,-2.44
2022-12-19T15:09:17.501Z,-2.48
2022-12-19T15:14:51.165Z,-2.42
2022-12-19T15:15:40.809Z,-2.55
2022-12-19T15:18:42.940Z,-2.61
2022-12-19T15:21:47.542Z,-2.70
2022-12-19T15:24:49.522Z,-2.71
2022-12-19T15:27:52.872Z,-2.70
2022-12-19T15:31:00.507Z,-2.68
2022-12-19T15:37:32.347Z,-2.48
2022-12-19T15:40:36.856Z,-2.64
2022-12-19T15:44:03.174Z,-2.71
2022-12-19T15:47:03.953Z,-2.80
2022-12-19T15:50:19.204Z,-2.85
2022-12-19T15:53:38.078Z,-2.74
2022-12-19T15:56:45.206Z,-2.81
2022-12-19T15:59:48.904Z,-2.74
2022-12-19T16:03:23.140Z,-2.73
2022-12-19T16:06:16.037Z,-2.75
2022-12-19T16:09:20.422Z,-2.75
2022-12-19T16:12:26.528Z,-2.82
2022-12-19T16:15:34.392Z,-2.65
2022-12-19T16:18:36.308Z,-2.72
2022-12-19T16:21:38.174Z,-2.78
2022-12-19T16:24:40.069Z,-2.74
2022-12-19T16:27:43.136Z,-2.89
2022-12-19T16:30:46.577Z,-2.86
2022-12-19T16:33:48.476Z,-2.81
2022-12-19T16:36:50.745Z,-2.94
2022-12-19T16:39:52.616Z,-2.79
2022-12-19T16:43:04.350Z,-2.85
2022-12-19T16:46:12.533Z,-2.93
2022-12-19T16:49:16.243Z,-3.18
2022-12-19T16:52:18.160Z,-3.04
2022-12-19T16:55:20.616Z,-3.06
2022-12-19T16:58:24.274Z,-3.10
2022-12-19T17:01:30.142Z,-2.98
2022-12-19T17:04:32.071Z,-3.07
2022-12-19T17:07:34.153Z,-2.87
2022-12-19T17:10:36.268Z,-2.79
2022-12-19T17:13:38.538Z,-2.64
2022-12-19T17:16:42.379Z,-2.61
2022-12-19T17:19:45.851Z,-2.49
2022-12-19T17:22:48.628Z,-2.45
2022-12-19T17:25:53.567Z,-2.44
2022-12-19T17:28:55.473Z,-2.37
2022-12-19T17:31:59.047Z,-2.36
2022-12-19T17:35:00.976Z,-2.45
2022-12-19T17:38:03.549Z,-2.46
2022-12-19T17:41:05.800Z,-2.46
2022-12-19T17:44:07.652Z,-2.43
2022-12-19T17:47:14.302Z,-2.41
2022-12-19T17:50:22.746Z,-2.37
2022-12-19T17:53:25.050Z,-2.34
2022-12-19T17:56:26.959Z,-2.30
2022-12-19T17:59:28.724Z,-2.25
2022-12-19T18:02:54.618Z,-2.20
2022-12-19T18:06:19.945Z,-2.17
2022-12-19T18:09:25.056Z,-2.11
2022-12-19T18:12:29.279Z,-2.04
2022-12-19T18:15:31.311Z,-2.04
2022-12-19T18:18:36.043Z,-2.04
2022-12-19T18:21:41.019Z,-2.05
2022-12-19T18:24:43.025Z,-2.08
2022-12-19T18:27:45.502Z,-1.93
2022-12-19T18:30:48.987Z,-2.05
2022-12-19T18:33:54.469Z,-2.13
2022-12-19T18:36:56.577Z,-2.14
2022-12-19T18:39:58.430Z,-2.11
2022-12-19T18:43:00.843Z,-2.14
2022-12-19T18:46:02.944Z,-2.19
2022-12-19T18:49:12.604Z,-2.20
2022-12-19T18:52:16.191Z,-2.32
2022-12-19T18:55:23.679Z,-2.33
2022-12-19T18:58:25.749Z,-2.33
2022-12-19T19:01:28.200Z,-2.44
2022-12-19T19:04:32.406Z,-2.42
2022-12-19T19:07:34.386Z,-2.35
2022-12-19T19:10:36.212Z,-2.36
2022-12-19T19:13:38.931Z,-2.39
2022-12-19T19:16:42.837Z,-2.37
2022-12-19T19:19:47.431Z,-2.41
2022-12-19T19:22:49.501Z,-2.40
2022-12-19T19:25:54.285Z,-2.40
2022-12-19T19:28:56.199Z,-2.42
2022-12-19T19:31:58.517Z,-2.41
2022-12-19T19:35:05.138Z,-2.39
2022-12-19T19:38:09.065Z,-2.41
2022-12-19T19:41:11.267Z,-2.44
2022-12-19T19:44:13.620Z,-2.34
2022-12-19T19:47:18.102Z,-2.32
2022-12-19T19:50:23.068Z,-2.39
2022-12-19T19:53:25.423Z,-2.42
2022-12-19T19:56:27.780Z,-2.42
2022-12-19T19:59:30.744Z,-2.48
2022-12-19T20:02:33.647Z,-2.45
2022-12-19T20:05:37.661Z,-2.49
2022-12-19T20:08:40.817Z,-2.52
2022-12-19T20:11:43.456Z,-2.52
2022-12-19T20:14:45.471Z,-2.48
2022-12-19T20:17:47.367Z,-2.41
2022-12-19T20:20:50.667Z,-2.42
2022-12-19T20:23:52.908Z,-2.42
2022-12-19T20:26:55.022Z,-2.49
2022-12-19T20:29:57.327Z,-2.54
2022-12-19T20:33:01.526Z,-2.50
2022-12-19T20:36:08.999Z,-2.52
2022-12-19T20:39:11.080Z,-2.49
2022-12-19T20:42:13.087Z,-2.46
2022-12-19T20:45:15.048Z,-2.48
2022-12-19T20:48:16.958Z,-2.55
2022-12-19T20:51:21.859Z,-2.60
2022-12-19T20:54:23.811Z,-2.67
2022-12-19T20:57:27.389Z,-2.68
2022-12-19T21:00:29.303Z,-2.65
2022-12-19T21:03:33.681Z,-2.64
2022-12-19T21:06:37.154Z,-2.68
2022-12-19T21:09:39.108Z,-2.63
2022-12-19T21:12:47.158Z,-2.66
2022-12-19T21:15:52.024Z,-2.69
2022-12-19T21:18:54.112Z,-2.73
2022-12-19T21:21:57.408Z,-2.65
2022-12-19T21:24:59.232Z,-2.64
2022-12-19T21:28:01.134Z,-2.71
2022-12-19T21:31:05.859Z,-2.72
2022-12-19T21:34:07.813Z,-2.71
2022-12-19T21:37:11.135Z,-2.75
2022-12-19T21:40:13.731Z,-2.86
2022-12-19T21:43:15.632Z,-2.99
2022-12-19T21:46:17.848Z,-2.88
2022-12-19T21:49:22.114Z,-2.91
2022-12-19T21:52:25.314Z,-2.96
2022-12-19T21:55:27.195Z,-3.01
2022-12-19T21:58:29.060Z,-3.06
2022-12-19T22:01:31.546Z,-3.03
2022-12-19T22:04:33.529Z,-3.05
2022-12-19T22:07:36.714Z,-3.02
2022-12-19T22:10:38.709Z,-3.01
2022-12-19T22:13:40.812Z,-3.06
2022-12-19T22:16:44.365Z,-3.04
2022-12-19T22:19:46.262Z,-3.09
2022-12-19T22:22:49.443Z,-3.07
2022-12-19T22:26:00.135Z,-3.10
2022-12-19T22:29:06.040Z,-3.15
2022-12-19T22:32:07.957Z,-3.12
2022-12-19T22:35:10.164Z,-3.17
2022-12-19T22:38:13.346Z,-3.18
2022-12-19T22:41:16.221Z,-3.17
2022-12-19T22:44:19.968Z,-3.17
2022-12-19T22:47:21.848Z,-3.36
2022-12-19T22:50:23.644Z,-3.32
2022-12-19T22:53:26.915Z,-3.20
2022-12-19T22:56:30.660Z,-3.21
2022-12-19T22:59:32.593Z,-3.30
2022-12-19T23:02:34.523Z,-3.25
2022-12-19T23:05:36.605Z,-3.21
2022-12-19T23:08:40.183Z,-3.22
2022-12-19T23:11:47.586Z,-3.22
2022-12-19T23:14:49.410Z,-3.24
2022-12-19T23:17:51.222Z,-3.30
2022-12-19T23:21:02.448Z,-3.26
2022-12-19T23:24:09.043Z,-3.30
2022-12-19T23:27:10.930Z,-3.37
2022-12-19T23:30:12.933Z,-3.32
2022-12-19T23:33:14.826Z,-3.28
2022-12-19T23:36:23.314Z,-3.32
2022-12-19T23:39:40.349Z,-3.35
2022-12-19T23:42:42.153Z,-3.35
2022-12-19T23:45:44.030Z,-3.45
2022-12-19T23:48:46.097Z,-3.50
2022-12-19T23:51:48.948Z,-3.34
2022-12-19T23:54:52.137Z,-3.40
2022-12-19T23:57:53.994Z,-3.48
